首页
METAR-TAF:

METAR-TAF

机场 :

雷烏斯, 西班牙

纬度: 41-09N, 经度: 001-10E, 海拔: 71米

当前天气观测

该预报发布于17分钟前的19:30 UTC
风速3节,风向,在西北北转东北之间变化
温度 10°C
湿度 82%
气压 1029 hPa
能见度10公里或以上
1500米以下无云,无积雨云

METAR: LERS 211930Z 36003KT 320V020 CAVOK 10/07 Q1029

时间: 20:47 (19:47 UTC)

预报

该预报发布于5小时和47分钟前的14:00 UTC
预报有效从21日的 15点(UTC)到 22日的 15点(UTC)
风速14节,风向西转西南
能见度10公里或以上
少量云层高于3000英尺
成为
从 21日的 17点(UTC)到 21日的 19点(UTC)
风速4节,风向西转西南

TAF: LERS 211400Z 2115/2215 25014KT 9999 FEW030 TX17/2213Z TN05/2206Z BECMG 2117/2119 25004KT

超过4000个机场的气象观测和天气预报(METAR&TAF报告)。

可查询的气象台以黄色和红色小点在地图上表示。

将鼠标移到小点上方,可查看气象台名称。

然后点击查看天气观测和预报。

如需切换地图:点击带黑十字的绿色按钮放大地图;点击带横线的绿色按钮缩小地图;或者点击绿色箭头查看邻近地区的地图。


METAR-TAF: